createdAt,value
2023-02-10T00:01:33.160Z,6.00
2023-02-10T00:03:59.922Z,5.38
2023-02-10T00:06:27.597Z,5.10
2023-02-10T00:08:56.010Z,5.72
2023-02-10T00:11:45.546Z,5.20
2023-02-10T00:14:13.317Z,4.68
2023-02-10T00:16:40.150Z,4.95
2023-02-10T00:19:06.980Z,5.07
2023-02-10T00:21:33.940Z,5.72
2023-02-10T00:24:00.760Z,5.45
2023-02-10T00:26:27.716Z,4.10
2023-02-10T00:28:54.483Z,4.85
2023-02-10T00:31:22.444Z,4.85
2023-02-10T00:33:49.304Z,3.97
2023-02-10T00:36:16.247Z,3.97
2023-02-10T00:38:43.185Z,4.68
2023-02-10T00:41:14.328Z,4.20
2023-02-10T00:43:41.284Z,4.78
2023-02-10T00:46:08.020Z,5.10
2023-02-10T00:48:34.823Z,5.00
2023-02-10T00:51:01.929Z,4.70
2023-02-10T00:53:28.753Z,3.80
2023-02-10T00:55:56.983Z,4.72
2023-02-10T00:58:24.069Z,4.90
2023-02-10T01:00:51.049Z,4.60
2023-02-10T01:03:17.800Z,4.45
2023-02-10T01:05:46.261Z,3.97
2023-02-10T01:08:13.911Z,3.70
2023-02-10T01:10:40.636Z,4.07
2023-02-10T01:13:08.437Z,3.92
2023-02-10T01:15:35.246Z,4.25
2023-02-10T01:18:01.931Z,4.03
2023-02-10T01:20:28.720Z,4.20
2023-02-10T01:22:55.454Z,3.60
2023-02-10T01:25:22.286Z,4.55
2023-02-10T01:27:49.084Z,3.80
2023-02-10T01:30:16.443Z,4.30
2023-02-10T01:32:43.223Z,3.90
2023-02-10T01:35:09.964Z,4.32
2023-02-10T01:37:38.834Z,3.95
2023-02-10T01:40:06.127Z,3.30
2023-02-10T01:42:32.921Z,3.90
2023-02-10T01:45:29.326Z,3.95
2023-02-10T01:47:56.684Z,4.10
2023-02-10T01:50:27.164Z,3.42
2023-02-10T01:52:54.212Z,3.20
2023-02-10T01:55:26.958Z,3.90
2023-02-10T01:57:55.189Z,3.83
2023-02-10T02:00:22.753Z,4.88
2023-02-10T02:02:49.561Z,3.40
2023-02-10T02:05:20.838Z,4.30
2023-02-10T02:07:49.246Z,4.35
2023-02-10T02:10:16.025Z,4.35
2023-02-10T02:12:49.489Z,4.20
2023-02-10T02:15:30.051Z,3.95
2023-02-10T02:18:11.648Z,3.90
2023-02-10T02:21:09.493Z,4.55
2023-02-10T02:24:03.332Z,4.15
2023-02-10T02:26:44.572Z,4.07
2023-02-10T02:29:35.213Z,3.70
2023-02-10T02:32:20.596Z,4.32
2023-02-10T02:34:53.705Z,3.90
2023-02-10T02:37:29.756Z,3.65
2023-02-10T02:39:56.898Z,4.40
2023-02-10T02:42:25.411Z,4.45
2023-02-10T02:45:04.179Z,4.25
2023-02-10T02:47:43.962Z,3.60
2023-02-10T02:50:36.297Z,4.00
2023-02-10T02:53:29.418Z,3.65
2023-02-10T02:56:05.365Z,3.20
2023-02-10T02:59:04.343Z,3.58
2023-02-10T03:01:36.474Z,3.50
2023-02-10T03:04:04.117Z,2.97
2023-02-10T03:06:30.923Z,4.03
2023-02-10T03:08:57.653Z,3.85
2023-02-10T03:11:24.391Z,3.30
2023-02-10T03:13:51.160Z,3.65
2023-02-10T03:16:17.981Z,3.53
2023-02-10T03:18:44.810Z,3.25
2023-02-10T03:21:11.569Z,3.75
2023-02-10T03:23:38.388Z,4.40
2023-02-10T03:26:05.185Z,3.80
2023-02-10T03:28:31.944Z,4.07
2023-02-10T03:30:58.731Z,3.75
2023-02-10T03:33:25.474Z,4.13
2023-02-10T03:35:54.998Z,3.65
2023-02-10T03:38:22.004Z,3.67
2023-02-10T03:40:52.008Z,3.08
2023-02-10T03:43:19.344Z,4.07
2023-02-10T03:45:46.485Z,3.60
2023-02-10T03:48:13.623Z,3.70
2023-02-10T03:50:40.410Z,3.83
2023-02-10T03:53:07.153Z,4.05
2023-02-10T03:55:33.955Z,4.32
2023-02-10T03:58:02.264Z,4.70
2023-02-10T04:00:29.526Z,4.10
2023-02-10T04:02:56.422Z,4.95
2023-02-10T04:05:23.227Z,4.18
2023-02-10T04:07:50.052Z,3.60
2023-02-10T04:10:16.862Z,3.40
2023-02-10T04:12:43.622Z,3.67
2023-02-10T04:15:10.437Z,3.42
2023-02-10T04:17:37.210Z,3.80
2023-02-10T04:20:04.143Z,3.78
2023-02-10T04:22:30.916Z,4.38
2023-02-10T04:24:57.671Z,3.63
2023-02-10T04:27:24.442Z,4.10
2023-02-10T04:29:51.200Z,3.55
2023-02-10T04:32:17.953Z,4.05
2023-02-10T04:34:44.656Z,3.38
2023-02-10T04:37:11.572Z,3.60
2023-02-10T04:39:38.358Z,3.08
2023-02-10T04:42:05.139Z,3.50
2023-02-10T04:44:31.901Z,3.83
2023-02-10T04:46:58.682Z,3.95
2023-02-10T04:49:25.925Z,5.90
2023-02-10T04:51:52.746Z,7.10
2023-02-10T04:54:19.517Z,7.50
2023-02-10T04:56:46.271Z,7.30
2023-02-10T04:59:13.783Z,5.45
2023-02-10T05:01:40.616Z,4.75
2023-02-10T05:04:07.367Z,4.45
2023-02-10T05:06:34.142Z,4.00
2023-02-10T05:09:00.913Z,4.05
2023-02-10T05:11:27.698Z,3.10
2023-02-10T05:13:54.485Z,3.30
2023-02-10T05:16:21.273Z,3.70
2023-02-10T05:18:48.006Z,3.60
2023-02-10T05:21:14.948Z,4.47
2023-02-10T05:23:41.828Z,5.07
2023-02-10T05:26:08.693Z,4.65
2023-02-10T05:28:35.578Z,4.47
2023-02-10T05:31:04.719Z,3.30
2023-02-10T05:33:31.482Z,3.50
2023-02-10T05:35:58.268Z,4.22
2023-02-10T05:38:25.246Z,3.80
2023-02-10T05:40:52.068Z,3.72
2023-02-10T05:43:18.827Z,3.60
2023-02-10T05:45:47.604Z,4.35
2023-02-10T05:48:14.593Z,3.72
2023-02-10T05:50:42.647Z,3.50
2023-02-10T05:53:10.111Z,4.25
2023-02-10T05:55:37.203Z,3.10
2023-02-10T05:58:05.139Z,3.92
2023-02-10T06:00:32.118Z,3.95
2023-02-10T06:02:58.874Z,3.80
2023-02-10T06:05:25.684Z,3.95
2023-02-10T06:07:52.612Z,3.80
2023-02-10T06:10:19.429Z,4.07
2023-02-10T06:12:46.225Z,3.47
2023-02-10T06:15:13.023Z,3.72
2023-02-10T06:17:39.806Z,3.80
2023-02-10T06:20:06.845Z,3.50
2023-02-10T06:22:33.622Z,4.25
2023-02-10T06:25:00.894Z,3.90
2023-02-10T06:27:27.681Z,3.83
2023-02-10T06:29:54.957Z,4.20
2023-02-10T06:32:21.835Z,4.40
2023-02-10T06:34:48.700Z,4.80
2023-02-10T06:37:15.415Z,4.10
2023-02-10T06:39:42.128Z,4.90
2023-02-10T06:42:08.954Z,4.93
2023-02-10T06:44:35.759Z,5.18
2023-02-10T06:47:02.433Z,5.50
2023-02-10T06:49:29.266Z,6.35
2023-02-10T06:51:56.438Z,5.95
2023-02-10T06:54:23.782Z,5.30
2023-02-10T06:56:50.772Z,5.18
2023-02-10T06:59:17.930Z,5.10
2023-02-10T07:01:44.763Z,4.60
2023-02-10T07:04:11.622Z,4.97
2023-02-10T07:06:39.035Z,4.03
2023-02-10T07:09:06.112Z,4.88
2023-02-10T07:11:33.578Z,4.15
2023-02-10T07:14:00.328Z,4.57
2023-02-10T07:16:28.883Z,4.32
2023-02-10T07:18:55.653Z,4.18
2023-02-10T07:21:22.438Z,4.00
2023-02-10T07:23:49.152Z,4.80
2023-02-10T07:26:18.843Z,4.53
2023-02-10T07:28:45.708Z,4.57
2023-02-10T07:31:12.726Z,5.25
2023-02-10T07:33:39.585Z,4.93
2023-02-10T07:36:06.790Z,4.82
2023-02-10T07:38:33.582Z,5.18
2023-02-10T07:41:00.384Z,5.30
2023-02-10T07:43:27.116Z,5.00
2023-02-10T07:45:53.971Z,5.55
2023-02-10T07:48:20.767Z,5.38
2023-02-10T07:50:47.638Z,4.13
2023-02-10T07:53:14.501Z,5.22
2023-02-10T07:55:41.263Z,4.03
2023-02-10T07:58:08.107Z,5.53
2023-02-10T08:00:35.298Z,5.40
2023-02-10T08:03:02.049Z,4.85
2023-02-10T08:05:29.466Z,4.57
2023-02-10T08:07:56.513Z,4.75
2023-02-10T08:10:23.263Z,5.10
2023-02-10T08:12:50.086Z,5.05
2023-02-10T08:15:18.105Z,5.18
2023-02-10T08:17:45.553Z,4.32
2023-02-10T08:20:12.448Z,3.97
2023-02-10T08:22:39.513Z,4.45
2023-02-10T08:25:06.500Z,4.93
2023-02-10T08:27:33.302Z,4.70
2023-02-10T08:30:00.065Z,4.60
2023-02-10T08:32:26.774Z,4.45
2023-02-10T08:34:53.818Z,4.22
2023-02-10T08:37:20.619Z,4.30
2023-02-10T08:39:47.392Z,4.63
2023-02-10T08:42:14.169Z,4.10
2023-02-10T08:44:40.905Z,4.10
2023-02-10T08:47:09.725Z,5.40
2023-02-10T08:49:36.561Z,5.20
2023-02-10T08:52:03.394Z,3.92
2023-02-10T08:54:30.134Z,4.70
2023-02-10T08:56:57.063Z,4.88
2023-02-10T08:59:23.824Z,5.10
2023-02-10T09:01:50.733Z,5.30
2023-02-10T09:04:17.675Z,4.50
2023-02-10T09:06:44.729Z,4.10
2023-02-10T09:09:12.729Z,3.80
2023-02-10T09:11:39.559Z,3.95
2023-02-10T09:14:06.355Z,3.20
2023-02-10T09:16:33.226Z,3.78
2023-02-10T09:19:00.139Z,4.03
2023-02-10T09:21:32.833Z,4.00
2023-02-10T09:24:08.416Z,3.10
2023-02-10T09:26:35.200Z,3.53
2023-02-10T09:29:02.047Z,3.13
2023-02-10T09:31:28.852Z,3.25
2023-02-10T09:33:55.698Z,2.60
2023-02-10T09:36:22.480Z,2.80
2023-02-10T09:38:50.254Z,2.72
2023-02-10T09:41:23.275Z,3.38
2023-02-10T09:44:19.716Z,3.15
2023-02-10T09:47:07.031Z,2.80
2023-02-10T09:49:48.831Z,3.15
2023-02-10T09:52:30.926Z,2.55
2023-02-10T09:54:57.687Z,2.78
2023-02-10T09:57:43.655Z,2.63
2023-02-10T10:00:24.036Z,2.10
2023-02-10T10:02:55.251Z,2.70
2023-02-10T10:05:30.818Z,2.35
2023-02-10T10:07:57.568Z,2.33
2023-02-10T10:10:35.858Z,2.67
2023-02-10T10:13:02.832Z,2.42
2023-02-10T10:15:36.113Z,2.70
2023-02-10T10:18:20.279Z,2.33
2023-02-10T10:21:13.137Z,3.15
2023-02-10T10:23:47.959Z,2.00
2023-02-10T10:26:49.353Z,2.42
2023-02-10T10:29:31.556Z,2.95
2023-02-10T10:32:09.159Z,2.20
2023-02-10T10:34:37.555Z,2.50
2023-02-10T10:37:06.542Z,2.85
2023-02-10T10:39:38.952Z,2.75
2023-02-10T10:42:18.073Z,2.20
2023-02-10T10:44:45.461Z,2.45
2023-02-10T10:47:22.010Z,2.75
2023-02-10T10:49:48.797Z,3.15
2023-02-10T10:52:29.862Z,2.72
2023-02-10T10:54:57.094Z,2.88
2023-02-10T10:57:23.875Z,2.45
2023-02-10T10:59:54.796Z,2.55
2023-02-10T11:02:23.491Z,2.72
2023-02-10T11:05:23.178Z,2.90
2023-02-10T11:07:51.328Z,2.65
2023-02-10T11:10:48.256Z,2.78
2023-02-10T11:13:22.175Z,3.00
2023-02-10T11:15:49.086Z,3.10
2023-02-10T11:18:19.262Z,2.92
2023-02-10T11:21:08.895Z,3.10
2023-02-10T11:23:54.286Z,2.65
2023-02-10T11:26:25.752Z,2.45
2023-02-10T11:28:52.646Z,3.03
2023-02-10T11:31:37.907Z,3.22
2023-02-10T11:34:16.710Z,3.38
2023-02-10T11:36:43.583Z,3.60
2023-02-10T11:39:37.081Z,3.25
2023-02-10T11:42:10.190Z,3.17
2023-02-10T11:44:36.962Z,3.20
2023-02-10T11:47:07.058Z,2.95
2023-02-10T11:49:35.507Z,2.95
2023-02-10T11:52:02.699Z,2.45
2023-02-10T11:54:29.442Z,2.88
2023-02-10T11:57:33.110Z,2.58
2023-02-10T12:00:11.669Z,3.30
2023-02-10T12:02:50.435Z,2.65
2023-02-10T12:05:43.584Z,2.58
2023-02-10T12:08:38.084Z,2.05
2023-02-10T12:11:22.347Z,2.00
2023-02-10T12:14:03.098Z,2.03
2023-02-10T12:17:08.177Z,1.92
2023-02-10T12:20:12.611Z,1.88
2023-02-10T12:23:03.467Z,1.90
2023-02-10T12:26:14.673Z,1.77
2023-02-10T12:29:13.102Z,1.65
2023-02-10T12:32:07.977Z,1.60
2023-02-10T12:34:42.756Z,1.88
2023-02-10T12:37:27.277Z,1.90
2023-02-10T12:40:17.977Z,2.15
2023-02-10T12:43:30.149Z,1.52
2023-02-10T12:45:56.835Z,1.90
2023-02-10T12:48:53.587Z,2.53
2023-02-10T12:51:51.137Z,1.80
2023-02-10T12:54:43.026Z,1.60
2023-02-10T12:57:30.020Z,2.05
2023-02-10T13:00:05.583Z,2.30
2023-02-10T13:02:34.031Z,1.80
2023-02-10T13:05:04.136Z,1.83
2023-02-10T13:07:52.787Z,2.13
2023-02-10T13:10:21.500Z,1.70
2023-02-10T13:12:49.246Z,1.80
2023-02-10T13:15:23.944Z,1.77
2023-02-10T13:17:51.460Z,1.67
2023-02-10T13:20:44.002Z,1.60
2023-02-10T13:23:34.081Z,2.00
2023-02-10T13:26:29.088Z,1.88
2023-02-10T13:29:02.027Z,1.77
2023-02-10T13:31:33.631Z,1.90
2023-02-10T13:34:24.975Z,1.90
2023-02-10T13:37:44.033Z,2.08
2023-02-10T13:40:16.728Z,2.63
2023-02-10T13:42:58.584Z,2.10
2023-02-10T13:45:29.268Z,2.20
2023-02-10T13:48:00.798Z,2.28
2023-02-10T13:50:30.405Z,2.22
2023-02-10T13:53:01.691Z,1.95
2023-02-10T13:55:40.249Z,2.03
2023-02-10T13:58:07.032Z,1.75
2023-02-10T14:00:51.172Z,1.83
2023-02-10T14:03:18.162Z,1.80
2023-02-10T14:05:59.246Z,1.70
2023-02-10T14:08:53.337Z,1.58
2023-02-10T14:11:41.768Z,1.33
2023-02-10T14:14:38.606Z,1.58
2023-02-10T14:17:21.076Z,1.63
2023-02-10T14:19:48.764Z,1.67
2023-02-10T14:22:33.350Z,1.33
2023-02-10T14:25:20.657Z,1.33
2023-02-10T14:27:50.754Z,2.03
2023-02-10T14:30:22.395Z,1.60
2023-02-10T14:32:49.280Z,1.10
2023-02-10T14:35:28.879Z,1.63
2023-02-10T14:37:58.254Z,1.70
2023-02-10T14:40:25.748Z,1.50
2023-02-10T14:42:52.586Z,1.60
2023-02-10T14:45:27.455Z,1.27
2023-02-10T14:47:57.920Z,1.48
2023-02-10T14:50:26.665Z,1.60
2023-02-10T14:52:53.431Z,1.48
2023-02-10T14:55:28.269Z,1.50
2023-02-10T14:58:11.305Z,1.85
2023-02-10T15:00:38.464Z,1.45
2023-02-10T15:03:05.320Z,1.60
2023-02-10T15:05:39.609Z,1.90
2023-02-10T15:08:08.297Z,2.80
2023-02-10T15:10:39.527Z,2.20
2023-02-10T15:13:06.297Z,2.00
2023-02-10T15:15:37.209Z,1.98
2023-02-10T15:18:09.171Z,1.70
2023-02-10T15:20:35.939Z,1.65
2023-02-10T15:23:02.715Z,1.95
2023-02-10T15:25:39.212Z,1.90
2023-02-10T15:28:11.800Z,1.60
2023-02-10T15:31:09.005Z,1.40
2023-02-10T15:33:55.162Z,1.55
2023-02-10T15:36:30.277Z,1.50
2023-02-10T15:38:57.015Z,1.25
2023-02-10T15:41:36.688Z,1.52
2023-02-10T15:44:24.876Z,1.48
2023-02-10T15:47:15.408Z,1.58
2023-02-10T15:49:43.119Z,1.65
2023-02-10T15:52:18.885Z,1.55
2023-02-10T15:54:45.619Z,1.25
2023-02-10T15:57:12.874Z,1.30
2023-02-10T15:59:39.622Z,2.00
2023-02-10T16:02:09.275Z,1.40
2023-02-10T16:04:36.144Z,2.03
2023-02-10T16:07:03.327Z,1.70
2023-02-10T16:09:31.083Z,1.45
2023-02-10T16:11:58.672Z,1.40
2023-02-10T16:14:25.443Z,1.55
2023-02-10T16:16:56.693Z,1.20
2023-02-10T16:19:24.141Z,1.70
2023-02-10T16:21:51.353Z,1.40
2023-02-10T16:24:19.808Z,1.80
2023-02-10T16:26:47.183Z,2.00
2023-02-10T16:29:22.383Z,1.58
2023-02-10T16:31:49.226Z,2.03
2023-02-10T16:34:16.059Z,2.00
2023-02-10T16:36:42.976Z,2.38
2023-02-10T16:39:28.056Z,2.70
2023-02-10T16:41:55.118Z,1.88
2023-02-10T16:44:21.871Z,1.85
2023-02-10T16:46:48.831Z,2.45
2023-02-10T16:49:16.556Z,1.95
2023-02-10T16:51:44.756Z,2.00
2023-02-10T16:54:11.486Z,2.35
2023-02-10T16:56:39.143Z,1.83
2023-02-10T16:59:06.351Z,2.03
2023-02-10T17:01:33.156Z,1.70
2023-02-10T17:04:00.229Z,2.30
2023-02-10T17:06:27.302Z,2.10
2023-02-10T17:08:54.142Z,2.45
2023-02-10T17:11:20.938Z,2.47
2023-02-10T17:13:47.762Z,2.60
2023-02-10T17:16:31.847Z,2.00
2023-02-10T17:18:58.622Z,2.13
2023-02-10T17:21:26.106Z,2.20
2023-02-10T17:23:52.948Z,1.92
2023-02-10T17:26:19.681Z,2.33
2023-02-10T17:28:46.451Z,2.30
2023-02-10T17:31:17.934Z,2.50
2023-02-10T17:33:49.651Z,2.63
2023-02-10T17:36:20.696Z,2.40
2023-02-10T17:38:50.768Z,2.30
2023-02-10T17:41:19.186Z,2.88
2023-02-10T17:43:46.229Z,2.47
2023-02-10T17:46:16.922Z,2.58
2023-02-10T17:48:43.913Z,3.08
2023-02-10T17:51:18.902Z,2.97
2023-02-10T17:53:47.375Z,3.20
2023-02-10T17:56:14.184Z,2.70
2023-02-10T17:58:41.131Z,3.10
2023-02-10T18:01:07.981Z,3.25
2023-02-10T18:03:34.853Z,3.00
2023-02-10T18:06:01.652Z,3.05
2023-02-10T18:08:28.533Z,3.47
2023-02-10T18:10:55.371Z,3.10
2023-02-10T18:13:22.156Z,2.78
2023-02-10T18:15:49.279Z,2.90
2023-02-10T18:18:16.217Z,3.33
2023-02-10T18:20:44.474Z,3.63
2023-02-10T18:23:11.324Z,2.95
2023-02-10T18:25:38.955Z,2.90
2023-02-10T18:28:06.383Z,3.10
2023-02-10T18:30:33.318Z,3.47
2023-02-10T18:33:00.025Z,2.70
2023-02-10T18:35:28.285Z,3.42
2023-02-10T18:37:55.048Z,3.10
2023-02-10T18:40:21.779Z,3.00
2023-02-10T18:42:48.601Z,3.30
2023-02-10T18:45:15.387Z,3.00
2023-02-10T18:47:42.112Z,2.90
2023-02-10T18:50:09.013Z,3.10
2023-02-10T18:52:35.747Z,3.78
2023-02-10T18:55:03.072Z,3.30
2023-02-10T18:57:29.817Z,3.53
2023-02-10T18:59:56.639Z,3.47
2023-02-10T19:02:23.501Z,3.70
2023-02-10T19:04:50.296Z,3.72
2023-02-10T19:07:17.067Z,3.45
2023-02-10T19:09:43.886Z,3.22
2023-02-10T19:12:10.650Z,4.18
2023-02-10T19:14:37.596Z,4.45
2023-02-10T19:17:04.341Z,4.10
2023-02-10T19:19:31.152Z,5.07
2023-02-10T19:21:58.218Z,4.05
2023-02-10T19:24:24.975Z,4.43
2023-02-10T19:26:51.988Z,3.40
2023-02-10T19:29:18.824Z,4.82
2023-02-10T19:31:45.688Z,4.70
2023-02-10T19:34:13.314Z,4.57
2023-02-10T19:36:40.204Z,3.75
2023-02-10T19:39:07.053Z,5.40
2023-02-10T19:41:33.892Z,4.70
2023-02-10T19:44:00.693Z,6.15
2023-02-10T19:46:27.547Z,4.65
2023-02-10T19:48:54.404Z,4.55
2023-02-10T19:51:25.270Z,4.80
2023-02-10T19:53:52.844Z,4.28
2023-02-10T19:56:19.609Z,4.57
2023-02-10T19:58:46.499Z,6.07
2023-02-10T20:01:18.011Z,6.50
2023-02-10T20:03:45.777Z,6.20
2023-02-10T20:06:15.032Z,5.22
2023-02-10T20:08:41.868Z,5.40
2023-02-10T20:11:08.660Z,4.03
2023-02-10T20:13:35.393Z,4.70
2023-02-10T20:16:02.218Z,4.10
2023-02-10T20:18:29.014Z,3.90
2023-02-10T20:21:03.675Z,4.43
2023-02-10T20:23:30.760Z,4.68
2023-02-10T20:25:57.709Z,4.60
2023-02-10T20:28:25.229Z,4.68
2023-02-10T20:30:52.359Z,5.18
2023-02-10T20:33:19.824Z,5.03
2023-02-10T20:35:46.776Z,4.80
2023-02-10T20:38:13.666Z,5.28
2023-02-10T20:40:41.126Z,5.90
2023-02-10T20:43:08.144Z,5.38
2023-02-10T20:45:34.965Z,4.78
2023-02-10T20:48:01.644Z,4.28
2023-02-10T20:50:28.408Z,4.50
2023-02-10T20:52:55.174Z,4.45
2023-02-10T20:55:22.081Z,4.40
2023-02-10T20:57:50.711Z,4.45
2023-02-10T21:00:17.750Z,4.10
2023-02-10T21:02:44.572Z,4.82
2023-02-10T21:05:11.378Z,5.10
2023-02-10T21:07:38.176Z,4.63
2023-02-10T21:10:05.183Z,5.30
2023-02-10T21:12:31.957Z,4.70
2023-02-10T21:14:58.755Z,6.55
2023-02-10T21:17:25.588Z,5.35
2023-02-10T21:19:52.351Z,5.72
2023-02-10T21:22:19.144Z,5.57
2023-02-10T21:24:45.919Z,5.25
2023-02-10T21:27:12.686Z,6.20
2023-02-10T21:29:39.429Z,5.00
2023-02-10T21:32:06.175Z,4.97
2023-02-10T21:34:32.913Z,5.22
2023-02-10T21:37:02.829Z,5.20
2023-02-10T21:39:30.204Z,4.90
2023-02-10T21:41:57.045Z,5.15
2023-02-10T21:44:29.399Z,4.55
2023-02-10T21:47:00.866Z,5.85
2023-02-10T21:49:28.509Z,5.07
2023-02-10T21:51:55.539Z,5.68
2023-02-10T21:54:23.321Z,5.45
2023-02-10T21:56:50.124Z,4.75
2023-02-10T21:59:16.893Z,5.07
2023-02-10T22:01:43.907Z,5.15
2023-02-10T22:04:10.832Z,5.50
2023-02-10T22:06:39.847Z,4.43
2023-02-10T22:09:07.614Z,5.68
2023-02-10T22:11:34.564Z,5.13
2023-02-10T22:14:01.392Z,4.68
2023-02-10T22:16:28.225Z,5.40
2023-02-10T22:18:55.047Z,4.90
2023-02-10T22:21:23.126Z,5.00
2023-02-10T22:23:50.016Z,4.15
2023-02-10T22:26:18.018Z,4.63
2023-02-10T22:28:44.963Z,3.90
2023-02-10T22:31:19.826Z,4.38
2023-02-10T22:33:46.747Z,4.78
2023-02-10T22:36:13.638Z,4.63
2023-02-10T22:38:40.657Z,4.57
2023-02-10T22:41:16.066Z,4.78
2023-02-10T22:43:43.138Z,5.05
2023-02-10T22:46:10.239Z,4.35
2023-02-10T22:48:37.213Z,4.38
2023-02-10T22:51:10.543Z,4.35
2023-02-10T22:53:37.484Z,3.50
2023-02-10T22:56:13.094Z,4.45
2023-02-10T22:58:40.002Z,4.43
2023-02-10T23:01:06.887Z,5.05
2023-02-10T23:03:33.743Z,4.13
2023-02-10T23:06:00.431Z,4.40
2023-02-10T23:08:27.201Z,4.70
2023-02-10T23:10:54.329Z,3.60
2023-02-10T23:13:21.300Z,4.30
2023-02-10T23:15:52.372Z,4.75
2023-02-10T23:18:19.475Z,4.50
2023-02-10T23:20:46.328Z,4.45
2023-02-10T23:23:13.091Z,4.10
2023-02-10T23:25:47.043Z,4.97
2023-02-10T23:28:14.122Z,4.13
2023-02-10T23:30:40.984Z,3.75
2023-02-10T23:33:09.068Z,3.55
2023-02-10T23:35:43.035Z,3.90
2023-02-10T23:38:10.055Z,3.80
2023-02-10T23:40:37.080Z,4.13
2023-02-10T23:43:03.862Z,4.28
2023-02-10T23:45:31.305Z,3.72
2023-02-10T23:47:58.121Z,4.72
2023-02-10T23:50:24.917Z,4.55
2023-02-10T23:52:51.734Z,3.70
2023-02-10T23:55:18.792Z,4.35
2023-02-10T23:57:45.580Z,4.15
